Time;durP1;ratioP1;P1;durP2;ratioP2;P2;SDS_P1;SDS_P2;PMS_P1;PMS_P2;Temp;Humidity;BMP_temperature;BMP_pressure;BME280_temperature;BME280_humidity;BME280_pressure;Samples;Min_cycle;Max_cycle;Signal;HPM_P1;HPM_P2
2021/06/26 00:02:15;;;;;;;3.97;2.10;;;;;;;21.17;53.71;97329.16;5035182;28;20025;-58
2021/06/26 00:04:42;;;;;;;4.60;2.13;;;;;;;21.12;54.32;97327.00;5034826;28;20386;-57
2021/06/26 00:07:08;;;;;;;5.68;2.30;;;;;;;21.06;54.63;97328.59;5034786;28;20041;-57
2021/06/26 00:09:33;;;;;;;5.13;2.00;;;;;;;21.16;54.57;97331.03;5034925;28;20057;-58
2021/06/26 00:11:59;;;;;;;4.90;2.10;;;;;;;20.80;55.80;97331.81;5034692;28;20040;-56
2021/06/26 00:14:24;;;;;;;7.75;2.65;;;;;;;20.76;56.18;97322.31;5033125;28;20032;-58
2021/06/26 00:16:49;;;;;;;6.00;2.08;;;;;;;21.01;55.43;97327.50;5033306;28;20390;-58
2021/06/26 00:19:15;;;;;;;6.80;2.40;;;;;;;21.00;55.68;97326.63;5032190;28;20029;-58
2021/06/26 00:21:40;;;;;;;5.40;1.88;;;;;;;21.03;55.62;97325.41;5033786;28;20406;-58
2021/06/26 00:24:06;;;;;;;6.22;2.10;;;;;;;21.11;55.72;97319.84;5034201;28;20030;-58
2021/06/26 00:26:31;;;;;;;6.28;2.10;;;;;;;21.03;55.85;97322.66;5033293;28;20037;-58
2021/06/26 00:28:57;;;;;;;6.03;2.50;;;;;;;21.00;56.29;97320.31;5034328;28;20103;-58
2021/06/26 00:31:22;;;;;;;4.88;2.10;;;;;;;20.79;57.07;97318.34;5033110;28;20504;-58
2021/06/26 00:33:47;;;;;;;3.63;1.95;;;;;;;20.45;57.82;97308.81;5034288;28;20029;-58
2021/06/26 00:36:13;;;;;;;6.10;2.28;;;;;;;20.60;57.71;97314.28;5034266;28;20503;-58
2021/06/26 00:38:39;;;;;;;5.22;2.15;;;;;;;20.55;58.15;97323.00;5032965;28;20033;-57
2021/06/26 00:41:04;;;;;;;7.00;2.30;;;;;;;20.56;57.74;97321.97;5032839;28;20036;-58
2021/06/26 00:43:30;;;;;;;3.85;2.22;;;;;;;20.46;57.90;97327.72;5033395;28;20033;-58
2021/06/26 00:45:57;;;;;;;5.03;2.15;;;;;;;20.37;58.26;97331.59;5034109;28;20111;-58
2021/06/26 00:48:23;;;;;;;6.50;2.15;;;;;;;20.16;59.03;97330.44;5034353;28;20026;-58
2021/06/26 00:50:48;;;;;;;4.70;2.10;;;;;;;20.06;59.57;97332.56;5032827;28;20033;-58
2021/06/26 00:53:14;;;;;;;3.45;2.20;;;;;;;19.79;59.92;97334.78;5033931;28;20104;-58
2021/06/26 00:55:39;;;;;;;6.25;2.45;;;;;;;19.93;59.64;97337.78;5032765;28;20036;-58
2021/06/26 00:58:05;;;;;;;8.98;2.40;;;;;;;19.56;61.09;97323.84;5033656;28;20029;-58
2021/06/26 01:00:31;;;;;;;6.30;2.33;;;;;;;19.58;60.91;97327.25;5034335;28;20021;-58
2021/06/26 01:02:57;;;;;;;6.13;2.20;;;;;;;19.69;60.81;97323.25;5033583;28;20025;-58
2021/06/26 01:05:23;;;;;;;5.32;2.45;;;;;;;19.75;60.61;97322.53;5033690;28;20033;-58
2021/06/26 01:07:49;;;;;;;5.68;2.55;;;;;;;19.87;60.46;97321.09;5033757;28;20033;-58
2021/06/26 01:10:14;;;;;;;4.35;2.25;;;;;;;19.72;61.09;97331.94;5033572;28;20065;-58
2021/06/26 01:12:40;;;;;;;6.80;2.10;;;;;;;19.85;60.64;97330.50;5032299;28;20445;-58
2021/06/26 01:15:08;;;;;;;6.13;2.42;;;;;;;19.97;60.17;97330.94;5033375;28;20029;-57
2021/06/26 01:17:33;;;;;;;4.35;2.15;;;;;;;20.06;59.71;97327.09;5032181;28;20029;-58
2021/06/26 01:20:01;;;;;;;4.15;2.20;;;;;;;20.19;59.35;97323.72;5033706;28;20436;-58
2021/06/26 01:22:27;;;;;;;6.43;2.58;;;;;;;20.10;59.03;97331.16;5032069;28;20048;-58
2021/06/26 01:24:53;;;;;;;5.80;2.28;;;;;;;20.08;59.13;97335.94;5033302;28;20029;-58
2021/06/26 01:27:19;;;;;;;5.57;2.00;;;;;;;20.13;58.68;97332.66;5032685;28;20032;-58
2021/06/26 01:29:49;;;;;;;5.28;2.28;;;;;;;20.18;58.37;97325.59;5032496;28;20030;-58
2021/06/26 01:32:16;;;;;;;4.43;2.22;;;;;;;20.40;57.26;97326.59;5033222;28;20033;-58
2021/06/26 01:34:42;;;;;;;5.05;2.20;;;;;;;20.52;54.49;97321.53;5033440;28;20125;-58
2021/06/26 01:37:08;;;;;;;6.95;2.50;;;;;;;20.62;53.30;97321.25;5033241;28;20091;-58
2021/06/26 01:39:33;;;;;;;5.13;2.35;;;;;;;20.48;54.19;97317.44;5033565;28;20041;-58
2021/06/26 01:41:59;;;;;;;6.55;2.38;;;;;;;20.29;53.72;97323.47;5033518;28;20021;-58
2021/06/26 01:44:24;;;;;;;5.63;1.85;;;;;;;20.42;52.11;97320.94;5033012;28;20408;-58
2021/06/26 01:46:50;;;;;;;2.97;1.80;;;;;;;20.63;50.85;97325.69;5033154;28;20057;-58
2021/06/26 01:49:17;;;;;;;4.97;1.90;;;;;;;20.69;50.39;97318.63;5033212;28;20018;-58
2021/06/26 01:51:43;;;;;;;2.72;1.80;;;;;;;20.71;51.02;97327.47;5032052;28;20025;-58
2021/06/26 01:54:10;;;;;;;4.50;1.98;;;;;;;20.57;52.28;97327.25;5031680;28;20390;-58
2021/06/26 01:56:36;;;;;;;3.45;2.03;;;;;;;20.20;54.06;97330.88;5031791;28;20032;-58
2021/06/26 01:59:02;;;;;;;6.68;2.33;;;;;;;20.17;53.82;97332.09;5030960;28;20030;-59
2021/06/26 02:01:27;;;;;;;4.43;2.30;;;;;;;20.16;53.71;97335.88;5030672;28;20037;-59
2021/06/26 02:03:52;;;;;;;6.07;2.30;;;;;;;20.26;53.34;97332.88;5031049;28;20047;-58
2021/06/26 02:06:18;;;;;;;3.72;2.30;;;;;;;20.32;53.77;97328.56;5031296;28;20034;-58
2021/06/26 02:08:43;;;;;;;6.30;2.28;;;;;;;20.27;54.06;97325.53;5031174;28;20405;-59
2021/06/26 02:11:09;;;;;;;4.13;2.17;;;;;;;20.21;53.99;97318.94;5032707;28;20029;-59
2021/06/26 02:13:34;;;;;;;2.97;2.00;;;;;;;20.29;53.83;97318.84;5031616;28;20490;-59
2021/06/26 02:16:00;;;;;;;4.53;2.10;;;;;;;20.14;54.46;97315.25;5032962;28;20026;-59
2021/06/26 02:18:25;;;;;;;5.72;2.15;;;;;;;20.01;54.82;97315.88;5033076;28;20037;-59
2021/06/26 02:20:51;;;;;;;4.85;2.22;;;;;;;19.95;55.10;97313.88;5031608;28;20022;-58
2021/06/26 02:23:16;;;;;;;6.75;2.10;;;;;;;19.83;55.59;97303.41;5031517;28;20474;-59
2021/06/26 02:25:41;;;;;;;4.35;2.10;;;;;;;19.99;54.96;97316.06;5031428;28;20037;-58
2021/06/26 02:28:07;;;;;;;6.15;2.38;;;;;;;20.01;55.87;97310.41;5032408;28;20397;-58
2021/06/26 02:30:32;;;;;;;6.68;2.10;;;;;;;20.00;55.92;97308.72;5032379;28;20029;-58
2021/06/26 02:32:58;;;;;;;4.25;2.28;;;;;;;19.97;55.92;97311.81;5032983;28;20477;-58
2021/06/26 02:35:23;;;;;;;3.78;2.10;;;;;;;19.67;56.69;97322.56;5032945;28;20126;-58
2021/06/26 02:37:49;;;;;;;4.53;2.08;;;;;;;19.65;56.96;97317.31;5035187;28;20472;-58
2021/06/26 02:40:14;;;;;;;4.05;2.10;;;;;;;19.61;57.24;97321.44;5036710;28;20029;-58
2021/06/26 02:42:40;;;;;;;4.25;2.10;;;;;;;19.54;57.75;97325.94;5016847;28;20049;-58
2021/06/26 02:45:07;;;;;;;4.60;2.20;;;;;;;19.49;57.95;97323.72;5016697;28;20469;-58
2021/06/26 02:47:32;;;;;;;5.88;2.05;;;;;;;19.63;57.63;97324.84;5016723;28;20389;-58
2021/06/26 02:49:57;;;;;;;5.93;2.22;;;;;;;19.73;57.90;97328.19;5016755;28;20030;-59
2021/06/26 02:52:23;;;;;;;2.78;2.10;;;;;;;19.70;58.31;97316.78;5016681;28;20034;-58
2021/06/26 02:54:49;;;;;;;5.40;2.08;;;;;;;19.79;57.83;97323.88;5057464;28;20037;-58
2021/06/26 02:57:15;;;;;;;4.35;2.00;;;;;;;19.84;57.92;97326.94;5033007;28;20049;-58
2021/06/26 02:59:41;;;;;;;4.80;2.10;;;;;;;19.84;58.26;97328.81;5036430;28;20109;-58
2021/06/26 03:02:06;;;;;;;3.83;2.20;;;;;;;19.79;58.36;97328.47;5036041;28;20470;-58
2021/06/26 03:04:32;;;;;;;6.85;2.10;;;;;;;19.71;58.72;97326.66;5035803;28;20072;-58
2021/06/26 03:06:57;;;;;;;3.78;1.92;;;;;;;19.71;58.98;97324.78;5035009;28;20083;-58
2021/06/26 03:09:23;;;;;;;6.18;2.20;;;;;;;19.78;58.38;97324.06;5034547;28;20025;-58
2021/06/26 03:11:48;;;;;;;4.90;2.05;;;;;;;19.78;58.26;97324.91;5035472;28;20477;-58
2021/06/26 03:14:13;;;;;;;7.65;2.28;;;;;;;19.82;57.83;97317.22;5036247;28;20029;-58
2021/06/26 03:16:39;;;;;;;5.13;1.95;;;;;;;19.88;57.45;97319.22;5035724;28;20113;-58
2021/06/26 03:19:04;;;;;;;2.75;1.90;;;;;;;19.84;57.19;97313.28;5035841;28;20032;-58
2021/06/26 03:21:30;;;;;;;4.90;2.20;;;;;;;19.84;57.22;97328.81;5034374;28;20457;-58
2021/06/26 03:23:56;;;;;;;4.63;1.90;;;;;;;19.78;57.85;97329.53;5035781;28;20516;-58
2021/06/26 03:26:21;;;;;;;5.43;1.75;;;;;;;18.81;62.03;97331.53;5034594;28;20025;-58
2021/06/26 03:28:46;;;;;;;8.30;1.98;;;;;;;18.89;61.23;97337.00;5030649;28;20120;-58
2021/06/26 03:31:12;;;;;;;4.63;2.20;;;;;;;19.10;60.29;97327.38;5031064;28;20474;-58
2021/06/26 03:33:38;;;;;;;7.38;2.38;;;;;;;19.27;59.80;97332.72;5032878;28;20478;-58
2021/06/26 03:36:04;;;;;;;3.50;2.30;;;;;;;19.31;59.29;97332.19;5035027;28;20021;-57
2021/06/26 03:38:29;;;;;;;3.80;2.10;;;;;;;19.45;58.46;97327.00;5035456;28;20040;-58
2021/06/26 03:40:54;;;;;;;2.75;1.90;;;;;;;19.34;58.29;97329.09;5034067;28;20115;-57
2021/06/26 03:43:20;;;;;;;4.20;2.10;;;;;;;19.22;59.00;97331.38;5035300;28;20037;-57
2021/06/26 03:45:45;;;;;;;7.47;2.20;;;;;;;19.25;58.77;97341.09;5034272;28;20044;-57
2021/06/26 03:48:11;;;;;;;4.35;1.95;;;;;;;19.37;58.37;97331.50;5035185;28;20036;-57
2021/06/26 03:50:38;;;;;;;3.63;1.92;;;;;;;19.37;58.08;97333.34;5033582;28;20477;-57
2021/06/26 03:53:04;;;;;;;3.22;1.80;;;;;;;19.35;58.25;97332.69;5033792;28;20404;-57
2021/06/26 03:55:29;;;;;;;6.05;2.15;;;;;;;19.30;58.70;97343.28;5028539;28;20030;-56
2021/06/26 03:57:54;;;;;;;5.70;1.95;;;;;;;19.19;58.74;97345.38;5033070;28;20029;-57
2021/06/26 04:00:20;;;;;;;2.70;2.03;;;;;;;19.31;57.96;97348.56;5033132;28;20101;-57
2021/06/26 04:02:46;;;;;;;5.18;2.00;;;;;;;19.31;58.32;97350.41;5031127;28;20048;-57
2021/06/26 04:05:11;;;;;;;3.65;1.90;;;;;;;19.44;56.89;97352.56;5033513;28;20091;-56
2021/06/26 04:07:36;;;;;;;3.42;1.90;;;;;;;19.58;55.79;97347.19;5034723;28;20028;-57
2021/06/26 04:10:03;;;;;;;4.20;1.90;;;;;;;19.51;57.20;97346.22;5033349;28;20029;-57
2021/06/26 04:12:29;;;;;;;2.35;1.80;;;;;;;19.42;56.21;97355.50;5032416;28;20030;-58
2021/06/26 04:14:54;;;;;;;2.95;1.88;;;;;;;19.38;56.23;97359.59;5034532;28;20031;-55
2021/06/26 04:17:20;;;;;;;4.18;1.75;;;;;;;19.29;56.79;97366.97;5034364;28;20033;-57
2021/06/26 04:19:45;;;;;;;1.75;1.60;;;;;;;19.51;55.38;97364.47;5034336;28;20548;-57
2021/06/26 04:22:12;;;;;;;4.45;1.67;;;;;;;19.58;55.40;97368.19;5033030;28;20116;-57
2021/06/26 04:24:37;;;;;;;3.58;1.80;;;;;;;19.60;55.21;97365.25;5020004;28;20052;-57
2021/06/26 04:27:03;;;;;;;4.40;1.80;;;;;;;19.69;54.82;97367.75;5019431;28;20029;-57
2021/06/26 04:29:29;;;;;;;3.75;1.65;;;;;;;19.78;54.05;97363.09;5033966;28;20026;-57
2021/06/26 04:31:54;;;;;;;3.95;1.70;;;;;;;19.84;53.89;97361.53;5034051;28;20080;-56
2021/06/26 04:34:19;;;;;;;3.90;1.80;;;;;;;19.91;54.52;97368.00;5033744;28;20040;-56
2021/06/26 04:36:46;;;;;;;3.15;1.65;;;;;;;19.88;55.30;97376.53;5033862;28;20029;-56
2021/06/26 04:39:11;;;;;;;3.92;1.92;;;;;;;19.84;55.80;97364.28;5034220;28;20063;-55
2021/06/26 04:41:37;;;;;;;2.83;1.83;;;;;;;19.83;54.23;97366.16;5033248;28;20053;-53
2021/06/26 04:44:04;;;;;;;3.65;1.80;;;;;;;19.81;56.81;97362.75;5030408;28;20041;-56
2021/06/26 04:46:29;;;;;;;4.50;2.00;;;;;;;19.65;57.02;97365.56;5028697;28;20026;-57
2021/06/26 04:48:54;;;;;;;5.50;1.90;;;;;;;19.63;56.77;97363.03;5031946;28;20075;-58
2021/06/26 04:51:20;;;;;;;3.72;1.80;;;;;;;19.70;55.69;97364.00;5030973;28;20025;-58
2021/06/26 04:53:45;;;;;;;3.72;1.80;;;;;;;19.65;57.54;97371.03;5031995;28;20041;-54
2021/06/26 04:56:11;;;;;;;4.70;1.92;;;;;;;19.41;59.03;97372.88;5029636;28;20017;-57
2021/06/26 04:58:37;;;;;;;4.55;1.90;;;;;;;19.52;58.70;97368.88;5031450;28;20022;-58
2021/06/26 05:01:02;;;;;;;4.55;1.70;;;;;;;19.65;58.23;97366.41;5030249;28;20031;-58
2021/06/26 05:03:28;;;;;;;2.83;1.75;;;;;;;19.62;58.92;97363.22;5031317;28;20075;-57
2021/06/26 05:05:53;;;;;;;3.63;1.92;;;;;;;19.53;58.92;97368.69;5033069;28;20032;-58
2021/06/26 05:08:19;;;;;;;5.18;2.05;;;;;;;19.57;58.64;97374.66;5032557;28;20080;-58
2021/06/26 05:10:45;;;;;;;2.45;1.90;;;;;;;19.67;57.52;97368.97;5032953;28;20076;-58
2021/06/26 05:13:10;;;;;;;4.05;1.70;;;;;;;19.74;56.29;97378.13;5027841;28;20029;-57
2021/06/26 05:15:36;;;;;;;4.85;1.88;;;;;;;19.77;56.07;97382.38;5032826;28;20496;-57
2021/06/26 05:18:02;;;;;;;6.78;2.00;;;;;;;19.85;55.63;97379.63;5032840;28;20112;-56
2021/06/26 05:20:28;;;;;;;3.10;1.90;;;;;;;19.97;54.84;97372.72;5032565;28;20034;-58
2021/06/26 05:22:53;;;;;;;7.65;1.85;;;;;;;19.93;55.32;97379.56;5031564;28;20061;-58
2021/06/26 05:25:19;;;;;;;4.10;1.85;;;;;;;19.98;54.82;97373.56;5015421;28;20025;-58
2021/06/26 05:27:44;;;;;;;5.75;2.00;;;;;;;20.06;54.16;97371.59;5032648;28;20036;-57
2021/06/26 05:30:10;;;;;;;3.15;1.75;;;;;;;20.16;53.72;97378.69;5033292;28;20480;-57
2021/06/26 05:32:36;;;;;;;2.78;1.70;;;;;;;20.22;53.74;97375.25;5032615;28;20079;-56
2021/06/26 05:35:02;;;;;;;3.08;1.90;;;;;;;20.18;54.14;97369.31;5033017;28;20037;-56
2021/06/26 05:37:28;;;;;;;2.72;1.80;;;;;;;20.23;53.32;97377.78;5033400;28;20445;-55
2021/06/26 05:39:53;;;;;;;4.47;2.00;;;;;;;20.30;54.24;97383.38;5031752;28;20510;-57
2021/06/26 05:42:19;;;;;;;50.90;3.60;;;;;;;20.37;54.91;97383.47;5032997;28;20022;-54
2021/06/26 05:44:44;;;;;;;2.65;2.00;;;;;;;20.16;55.30;97381.44;5032313;28;20065;-55
2021/06/26 05:47:10;;;;;;;2.72;1.90;;;;;;;20.20;56.14;97390.94;5032404;28;20049;-55
2021/06/26 05:49:35;;;;;;;8.10;1.90;;;;;;;20.28;55.94;97387.31;5032413;28;20018;-56
2021/06/26 05:52:00;;;;;;;5.60;2.10;;;;;;;20.35;56.95;97382.78;5032634;28;20558;-56
2021/06/26 05:54:26;;;;;;;4.57;1.90;;;;;;;20.40;56.72;97385.81;5030900;28;20465;-54
2021/06/26 05:56:51;;;;;;;3.47;2.00;;;;;;;20.52;56.32;97389.84;5031052;28;20127;-56
2021/06/26 05:59:17;;;;;;;4.57;2.10;;;;;;;20.66;55.62;97376.38;5026837;28;20036;-51
2021/06/26 06:01:42;;;;;;;11.77;2.42;;;;;;;20.84;54.98;97382.34;5027330;28;20522;-55
2021/06/26 06:04:08;;;;;;;9.75;2.13;;;;;;;20.88;55.46;97388.28;5014551;28;20033;-54
2021/06/26 06:06:34;;;;;;;7.72;2.30;;;;;;;20.94;54.18;97381.22;5032188;28;20029;-54
2021/06/26 06:09:00;;;;;;;5.50;2.50;;;;;;;21.01;55.28;97384.91;5030549;28;20061;-53
2021/06/26 06:11:25;;;;;;;4.97;2.28;;;;;;;20.99;55.46;97384.22;5031601;28;20069;-56
2021/06/26 06:13:51;;;;;;;4.95;2.03;;;;;;;21.09;54.77;97384.81;5036013;28;20049;-57
2021/06/26 06:16:17;;;;;;;5.88;2.10;;;;;;;21.10;54.04;97386.50;5035819;28;20488;-57
2021/06/26 06:18:44;;;;;;;5.30;2.15;;;;;;;21.09;55.38;97389.44;5034880;28;20104;-54
2021/06/26 06:21:09;;;;;;;4.47;2.03;;;;;;;21.02;56.11;97392.06;5033482;28;20028;-55
2021/06/26 06:23:35;;;;;;;4.22;2.10;;;;;;;21.10;55.45;97397.44;5035020;28;20100;-56
2021/06/26 06:26:00;;;;;;;41.22;6.85;;;;;;;21.27;55.33;97397.22;5035083;28;20028;-56
2021/06/26 06:28:26;;;;;;;7.50;2.50;;;;;;;21.21;57.61;97399.69;5035108;28;20071;-53
2021/06/26 06:30:51;;;;;;;10.15;2.60;;;;;;;21.33;55.54;97391.84;5056070;28;20414;-53
2021/06/26 06:33:17;;;;;;;9.15;2.67;;;;;;;21.29;55.05;97393.28;5035894;28;20028;-55
2021/06/26 06:35:42;;;;;;;9.93;2.90;;;;;;;21.48;56.00;97397.28;5035797;28;20021;-56
2021/06/26 06:38:07;;;;;;;3.63;2.30;;;;;;;21.30;55.84;97399.56;5034478;28;20090;-56
2021/06/26 06:40:33;;;;;;;9.95;2.90;;;;;;;21.12;56.99;97399.97;5035677;28;20018;-55
2021/06/26 06:42:58;;;;;;;16.65;4.70;;;;;;;21.15;57.29;97397.72;5035396;28;20024;-55
2021/06/26 06:45:24;;;;;;;13.40;3.67;;;;;;;21.52;55.97;97398.59;5035693;28;20025;-55
2021/06/26 06:47:49;;;;;;;25.20;4.63;;;;;;;21.61;55.97;97404.03;5035441;28;20490;-56
2021/06/26 06:50:15;;;;;;;5.53;2.30;;;;;;;21.83;54.00;97405.75;5035396;28;20044;-56
2021/06/26 06:52:40;;;;;;;6.25;2.58;;;;;;;21.95;53.19;97395.09;5035280;28;20092;-57
2021/06/26 06:55:07;;;;;;;12.60;2.63;;;;;;;22.09;52.76;97398.84;5033559;28;20026;-56
2021/06/26 06:57:33;;;;;;;8.82;2.40;;;;;;;22.15;53.00;97397.22;5057957;28;20022;-54
2021/06/26 06:59:58;;;;;;;5.95;2.63;;;;;;;22.27;51.89;97397.53;5033901;28;20025;-56
2021/06/26 07:02:24;;;;;;;6.45;2.80;;;;;;;22.32;52.55;97406.84;5031173;28;20487;-56
2021/06/26 07:04:49;;;;;;;5.47;2.50;;;;;;;22.37;52.23;97407.16;5033664;28;20505;-54
2021/06/26 07:07:15;;;;;;;6.90;2.40;;;;;;;22.48;51.67;97405.75;5035298;28;20025;-54
2021/06/26 07:09:41;;;;;;;5.75;2.25;;;;;;;22.53;51.48;97394.22;5026910;28;20033;-56
2021/06/26 07:12:06;;;;;;;3.72;2.13;;;;;;;22.60;49.89;97402.50;5035777;28;20060;-56
2021/06/26 07:14:32;;;;;;;6.97;2.20;;;;;;;22.67;50.55;97404.22;5034987;28;20032;-57
2021/06/26 07:16:57;;;;;;;7.93;2.20;;;;;;;22.64;50.35;97401.88;5032696;28;20488;-57
2021/06/26 07:19:23;;;;;;;11.13;2.72;;;;;;;22.68;50.07;97396.84;5034402;28;20028;-58
2021/06/26 07:21:48;;;;;;;9.57;2.42;;;;;;;22.84;49.62;97398.44;5054578;28;20461;-56
2021/06/26 07:24:14;;;;;;;5.47;2.20;;;;;;;22.93;49.26;97402.72;5027937;28;20037;-57
2021/06/26 07:26:39;;;;;;;5.15;2.10;;;;;;;22.97;48.76;97398.53;5036321;28;20104;-57
2021/06/26 07:29:05;;;;;;;6.90;2.53;;;;;;;23.01;49.06;97398.97;5048062;28;20100;-56
2021/06/26 07:31:31;;;;;;;8.18;2.30;;;;;;;23.14;49.35;97406.47;5041804;28;20067;-57
2021/06/26 07:33:57;;;;;;;7.35;2.30;;;;;;;23.15;49.61;97408.16;5042550;28;20057;-57
2021/06/26 07:36:22;;;;;;;12.65;2.55;;;;;;;23.16;49.41;97410.69;5049207;28;20029;-58
2021/06/26 07:38:48;;;;;;;4.60;2.20;;;;;;;23.24;48.97;97402.31;5036439;28;20493;-53
2021/06/26 07:41:14;;;;;;;6.20;2.30;;;;;;;23.32;48.85;97400.47;5047107;28;20057;-57
2021/06/26 07:43:39;;;;;;;6.65;2.40;;;;;;;23.28;49.42;97410.97;5042760;28;20029;-57
2021/06/26 07:46:06;;;;;;;6.22;2.30;;;;;;;23.33;48.87;97410.34;5040978;28;20033;-58
2021/06/26 07:48:31;;;;;;;4.53;2.28;;;;;;;23.36;48.83;97408.06;5049486;28;20051;-58
2021/06/26 07:50:57;;;;;;;6.00;2.47;;;;;;;23.43;48.27;97408.09;5035685;28;20021;-57
2021/06/26 07:53:23;;;;;;;7.38;2.58;;;;;;;23.32;49.25;97412.28;5046052;28;20029;-58
2021/06/26 07:55:53;;;;;;;8.38;2.60;;;;;;;23.36;49.17;97415.47;5045295;28;20033;-58
2021/06/26 07:58:19;;;;;;;5.63;2.72;;;;;;;23.60;48.82;97410.47;5038256;28;20025;-57
2021/06/26 08:00:46;;;;;;;7.18;2.90;;;;;;;23.59;48.60;97409.66;5050806;28;20538;-58
2021/06/26 08:03:12;;;;;;;6.03;2.65;;;;;;;23.76;48.31;97414.75;5039760;28;20066;-58
2021/06/26 08:05:37;;;;;;;8.95;2.65;;;;;;;23.76;48.69;97403.78;5045230;28;20022;-55
2021/06/26 08:08:03;;;;;;;7.65;2.45;;;;;;;23.62;48.82;97414.72;5046806;28;20033;-57
2021/06/26 08:10:28;;;;;;;5.13;2.15;;;;;;;23.78;48.20;97415.41;5038306;28;20025;-58
2021/06/26 08:12:53;;;;;;;6.20;2.88;;;;;;;23.87;48.89;97409.53;5049731;28;20033;-55
2021/06/26 08:15:19;;;;;;;7.57;2.40;;;;;;;23.96;48.25;97399.25;5041033;28;20021;-58
2021/06/26 08:17:45;;;;;;;5.38;2.45;;;;;;;24.10;47.80;97407.50;5043665;28;20544;-57
2021/06/26 08:20:10;;;;;;;8.88;2.80;;;;;;;24.06;48.04;97405.19;5046590;28;20397;-58
2021/06/26 08:22:38;;;;;;;12.63;2.65;;;;;;;24.01;48.21;97404.97;5037205;28;20041;-58
2021/06/26 08:25:04;;;;;;;7.15;2.80;;;;;;;24.02;47.75;97403.03;5047941;28;20040;-57
2021/06/26 08:27:29;;;;;;;9.57;2.70;;;;;;;24.18;47.97;97412.81;5041778;28;20032;-58
2021/06/26 08:29:55;;;;;;;14.45;3.42;;;;;;;24.28;48.14;97407.75;5034458;28;20068;-56
2021/06/26 08:32:20;;;;;;;9.13;2.90;;;;;;;24.29;47.08;97411.34;5031576;28;20033;-52
2021/06/26 08:34:45;;;;;;;6.07;3.10;;;;;;;24.26;46.57;97417.25;5039834;28;20387;-51
2021/06/26 08:37:11;;;;;;;8.82;3.20;;;;;;;24.16;47.75;97415.75;5040523;28;20082;-56
2021/06/26 08:39:36;;;;;;;7.15;3.10;;;;;;;24.05;47.61;97410.88;5036934;28;20159;-55
2021/06/26 08:42:02;;;;;;;6.28;2.80;;;;;;;24.03;48.13;97413.00;5037145;28;20075;-55
2021/06/26 08:44:27;;;;;;;7.75;3.00;;;;;;;24.24;47.05;97410.06;5036617;28;20034;-53
2021/06/26 08:46:53;;;;;;;5.50;3.05;;;;;;;24.37;46.69;97416.63;5049628;28;20037;-54
2021/06/26 08:49:19;;;;;;;6.68;2.88;;;;;;;24.43;46.42;97409.47;5038539;28;20100;-54
2021/06/26 08:51:44;;;;;;;6.13;2.72;;;;;;;24.42;46.47;97414.09;5052680;28;20439;-53
2021/06/26 08:54:12;;;;;;;8.15;2.90;;;;;;;24.44;46.69;97414.75;5039218;28;20473;-55
2021/06/26 08:56:39;;;;;;;5.50;2.70;;;;;;;24.52;45.77;97409.03;5048300;28;20033;-55
2021/06/26 08:59:04;;;;;;;9.73;3.30;;;;;;;24.64;45.54;97411.16;5030021;28;20036;-56
2021/06/26 09:01:29;;;;;;;6.32;3.10;;;;;;;24.63;45.68;97412.25;5031669;28;20033;-55
2021/06/26 09:04:03;;;;;;;7.82;3.67;;;;;;;24.66;45.00;97417.31;5044453;28;20037;-54
2021/06/26 09:06:32;;;;;;;9.98;3.05;;;;;;;24.71;45.58;97410.13;5033034;28;20112;-56
2021/06/26 09:08:58;;;;;;;11.70;3.20;;;;;;;24.70;45.69;97413.91;5028760;28;20108;-55
2021/06/26 09:11:23;;;;;;;7.90;3.10;;;;;;;24.80;46.24;97410.75;5031490;28;20109;-55
2021/06/26 09:13:48;;;;;;;7.72;3.35;;;;;;;24.94;46.77;97421.75;5032669;28;20025;-53
2021/06/26 09:16:17;;;;;;;8.65;3.60;;;;;;;24.97;45.53;97415.81;5032618;28;20385;-52
2021/06/26 09:18:43;;;;;;;9.82;3.47;;;;;;;25.03;45.48;97409.47;5032638;28;20025;-52
2021/06/26 09:21:17;;;;;;;8.25;3.58;;;;;;;25.00;46.39;97418.97;5031243;28;20017;-51
2021/06/26 09:23:42;;;;;;;8.82;3.55;;;;;;;25.02;45.21;97416.00;5028264;28;20032;-55
2021/06/26 09:26:11;;;;;;;8.75;3.55;;;;;;;25.06;44.83;97420.03;5029897;28;20021;-54
2021/06/26 09:28:40;;;;;;;7.93;3.35;;;;;;;25.12;45.02;97418.31;5030179;28;20032;-54
2021/06/26 09:31:20;;;;;;;7.57;3.90;;;;;;;25.14;43.84;97414.28;5028382;28;20022;-54
2021/06/26 09:33:57;;;;;;;8.17;3.30;;;;;;;25.10;44.43;97409.44;5030709;28;20037;-51
2021/06/26 09:36:25;;;;;;;10.75;4.03;;;;;;;25.12;43.24;97408.16;5030342;28;20355;-52
2021/06/26 09:38:59;;;;;;;7.07;3.55;;;;;;;25.10;43.88;97409.44;5032482;28;20407;-54
2021/06/26 09:41:25;;;;;;;7.53;3.53;;;;;;;25.22;43.61;97414.06;5031437;28;20170;-55
2021/06/26 09:43:51;;;;;;;6.55;3.35;;;;;;;25.33;44.11;97403.44;5031105;28;20450;-55
2021/06/26 09:46:17;;;;;;;7.95;3.58;;;;;;;25.39;43.38;97413.63;5030761;28;20021;-55
2021/06/26 09:48:49;;;;;;;9.00;3.92;;;;;;;25.23;42.64;97407.50;5023379;28;20687;-55
2021/06/26 09:51:25;;;;;;;5.63;3.30;;;;;;;25.51;42.90;97414.66;5028226;28;20037;-54
2021/06/26 09:54:00;;;;;;;5.32;3.05;;;;;;;25.58;42.97;97411.88;5032191;28;20528;-52
2021/06/26 09:56:47;;;;;;;7.30;3.53;;;;;;;25.60;42.79;97409.72;5034509;28;20029;-50
2021/06/26 09:59:14;;;;;;;8.15;3.22;;;;;;;25.59;43.31;97401.69;5033389;28;20490;-52
2021/06/26 10:01:42;;;;;;;9.77;3.75;;;;;;;25.66;42.73;97410.78;5032432;28;20032;-54
2021/06/26 10:04:11;;;;;;;7.78;3.70;;;;;;;25.61;42.50;97405.06;5040164;28;20132;-53
2021/06/26 10:06:37;;;;;;;8.48;3.60;;;;;;;25.70;42.99;97401.84;5027105;28;20021;-55
2021/06/26 10:09:05;;;;;;;9.73;3.58;;;;;;;25.70;42.45;97399.09;5044742;28;20096;-52
2021/06/26 10:11:32;;;;;;;7.90;3.50;;;;;;;25.78;41.94;97398.00;5032489;28;20108;-52
2021/06/26 10:14:01;;;;;;;6.88;3.40;;;;;;;25.62;42.52;97393.84;5031856;28;20040;-52
2021/06/26 10:16:29;;;;;;;7.15;3.55;;;;;;;25.77;42.71;97395.47;5033288;28;20029;-55
2021/06/26 10:18:57;;;;;;;7.32;3.03;;;;;;;25.86;41.08;97396.91;5031280;28;20112;-54
2021/06/26 10:21:22;;;;;;;7.28;3.20;;;;;;;25.90;40.44;97399.00;5028583;28;20509;-53
2021/06/26 10:23:48;;;;;;;8.10;3.13;;;;;;;25.94;40.67;97384.78;5027932;28;20030;-54
2021/06/26 10:26:14;;;;;;;8.25;3.13;;;;;;;25.99;41.50;97391.31;5028922;28;20072;-54
2021/06/26 10:29:06;;;;;;;6.10;3.00;;;;;;;26.14;40.40;97388.28;5030322;28;20028;-55
2021/06/26 10:31:35;;;;;;;6.78;3.05;;;;;;;26.17;40.25;97379.56;5029186;28;20049;-56
2021/06/26 10:34:12;;;;;;;12.77;3.42;;;;;;;26.06;40.47;97375.63;5030048;28;20024;-56
2021/06/26 10:36:39;;;;;;;11.57;3.83;;;;;;;26.07;40.86;97379.22;5032681;28;20033;-56
2021/06/26 10:39:24;;;;;;;9.60;3.40;;;;;;;26.06;40.67;97370.09;5031442;28;20048;-56
2021/06/26 10:42:03;;;;;;;8.63;3.03;;;;;;;26.09;42.47;97366.06;5028742;28;20029;-56
2021/06/26 10:44:40;;;;;;;4.90;2.75;;;;;;;26.34;42.52;97365.25;5029362;28;20374;-55
2021/06/26 10:47:05;;;;;;;6.45;3.20;;;;;;;26.22;42.64;97368.72;5028533;28;20130;-54
2021/06/26 10:49:30;;;;;;;8.63;3.20;;;;;;;25.74;42.54;97363.69;5030529;28;20455;-57
2021/06/26 10:52:14;;;;;;;8.13;3.00;;;;;;;26.17;43.15;97368.53;5030638;28;20033;-57
2021/06/26 10:54:52;;;;;;;10.00;3.30;;;;;;;26.26;43.88;97371.03;5030503;28;20010;-56
2021/06/26 10:57:18;;;;;;;7.03;2.90;;;;;;;26.53;43.13;97357.88;5030492;28;20389;-56
2021/06/26 10:59:56;;;;;;;8.23;3.30;;;;;;;26.63;40.41;97355.47;5031780;28;20037;-57
2021/06/26 11:02:22;;;;;;;7.40;2.70;;;;;;;26.61;40.99;97354.00;5030194;28;20025;-57
2021/06/26 11:04:47;;;;;;;6.95;2.60;;;;;;;26.72;40.67;97353.28;5033051;28;20029;-57
2021/06/26 11:07:15;;;;;;;8.00;2.80;;;;;;;26.66;39.12;97349.50;5034184;28;20033;-57
2021/06/26 11:09:46;;;;;;;6.00;2.65;;;;;;;26.64;38.63;97351.63;5034092;28;20433;-59
2021/06/26 11:12:14;;;;;;;8.93;2.53;;;;;;;26.56;39.35;97355.53;5033964;28;20096;-57
2021/06/26 11:14:56;;;;;;;4.95;2.50;;;;;;;26.38;39.26;97358.22;5033260;28;20545;-57
2021/06/26 11:17:33;;;;;;;6.60;2.90;;;;;;;26.38;41.09;97358.22;5034458;28;20033;-57
2021/06/26 11:19:59;;;;;;;7.07;3.13;;;;;;;26.50;40.88;97339.03;5033067;28;20021;-58
2021/06/26 11:22:24;;;;;;;8.52;2.80;;;;;;;26.55;40.65;97337.28;5034182;28;20383;-58
2021/06/26 11:24:49;;;;;;;5.50;2.72;;;;;;;26.47;40.46;97332.06;5034135;28;20087;-58
2021/06/26 11:27:19;;;;;;;7.10;2.83;;;;;;;26.63;40.64;97336.16;5024757;28;20079;-58
2021/06/26 11:29:48;;;;;;;9.60;2.90;;;;;;;26.78;41.79;97329.44;5042801;28;20036;-58
2021/06/26 11:32:23;;;;;;;6.43;2.83;;;;;;;26.79;39.99;97333.91;5031429;28;20033;-57